createdAt,value
2023-01-21T00:00:27.941Z,98779.53
2023-01-21T00:01:29.757Z,98780.94
2023-01-21T00:02:31.300Z,98778.81
2023-01-21T00:03:33.088Z,98780.69
2023-01-21T00:04:36.907Z,98779.63
2023-01-21T00:05:38.409Z,98771.09
2023-01-21T00:06:39.870Z,98780.41
2023-01-21T00:07:41.364Z,98778.59
2023-01-21T00:08:43.474Z,98782.53
2023-01-21T00:09:45.716Z,98778.44
2023-01-21T00:10:47.560Z,98781.28
2023-01-21T00:11:49.022Z,98778.44
2023-01-21T00:12:51.140Z,98788.59
2023-01-21T00:13:53.397Z,98781.16
2023-01-21T00:14:58.113Z,98787.91
2023-01-21T00:15:59.582Z,98787.34
2023-01-21T00:17:01.913Z,98787.63
2023-01-21T00:18:03.634Z,98789.22
2023-01-21T00:19:05.133Z,98792.09
2023-01-21T00:20:07.158Z,98776.97
2023-01-21T00:21:08.956Z,98781.91
2023-01-21T00:22:10.559Z,98788.72
2023-01-21T00:23:12.975Z,98787.72
2023-01-21T00:24:14.721Z,98791.75
2023-01-21T00:25:16.215Z,98787.09
2023-01-21T00:26:17.889Z,98787.72
2023-01-21T00:27:19.872Z,98786.34
2023-01-21T00:28:21.403Z,98787.63
2023-01-21T00:29:23.081Z,98793.09
2023-01-21T00:30:24.573Z,98788.66
2023-01-21T00:31:26.545Z,98799.00
2023-01-21T00:32:28.098Z,98796.66
2023-01-21T00:33:30.834Z,98800.97
2023-01-21T00:34:32.645Z,98797.84
2023-01-21T00:35:34.500Z,98796.91
2023-01-21T00:36:36.614Z,98797.91
2023-01-21T00:37:38.274Z,98798.72
2023-01-21T00:38:40.390Z,98794.53
2023-01-21T00:39:43.187Z,98800.97
2023-01-21T00:40:44.632Z,98801.78
2023-01-21T00:41:46.224Z,98801.78
2023-01-21T00:42:51.164Z,98799.97
2023-01-21T00:43:53.280Z,98805.16
2023-01-21T00:44:57.402Z,98805.63
2023-01-21T00:45:59.107Z,98801.84
2023-01-21T00:47:03.050Z,98804.91
2023-01-21T00:48:04.815Z,98801.09
2023-01-21T00:49:06.421Z,98812.97
2023-01-21T00:50:09.010Z,98812.66
2023-01-21T00:51:10.557Z,98813.94
2023-01-21T00:52:12.349Z,98809.00
2023-01-21T00:53:13.948Z,98810.53
2023-01-21T00:54:15.611Z,98813.13
2023-01-21T00:55:17.022Z,98815.75
2023-01-21T00:56:19.113Z,98809.56
2023-01-21T00:57:20.658Z,98812.13
2023-01-21T00:58:22.424Z,98816.75
2023-01-21T00:59:24.319Z,98814.38
2023-01-21T01:00:25.765Z,98823.75
2023-01-21T01:01:30.657Z,98813.38
2023-01-21T01:02:32.136Z,98819.84
2023-01-21T01:03:34.887Z,98817.22
2023-01-21T01:04:36.883Z,98818.53
2023-01-21T01:05:38.313Z,98821.94
2023-01-21T01:06:40.348Z,98821.44
2023-01-21T01:07:43.476Z,98825.88
2023-01-21T01:08:45.523Z,98821.94
2023-01-21T01:09:47.046Z,98827.94
2023-01-21T01:10:48.750Z,98825.19
2023-01-21T01:11:50.599Z,98834.22
2023-01-21T01:12:52.798Z,98828.50
2023-01-21T01:13:55.115Z,98823.84
2023-01-21T01:14:56.517Z,98828.31
2023-01-21T01:15:58.721Z,98829.81
2023-01-21T01:17:00.788Z,98831.88
2023-01-21T01:18:02.207Z,98836.53
2023-01-21T01:19:03.674Z,98839.66
2023-01-21T01:20:06.219Z,98837.53
2023-01-21T01:21:12.540Z,98841.19
2023-01-21T01:22:14.238Z,98841.91
2023-01-21T01:23:15.670Z,98840.88
2023-01-21T01:24:17.605Z,98841.38
2023-01-21T01:25:19.022Z,98840.63
2023-01-21T01:26:22.408Z,98841.88
2023-01-21T01:27:23.863Z,98844.53
2023-01-21T01:28:25.998Z,98846.56
2023-01-21T01:29:28.478Z,98841.66
2023-01-21T01:30:29.967Z,98842.19
2023-01-21T01:31:32.292Z,98839.38
2023-01-21T01:32:33.742Z,98841.97
2023-01-21T01:33:35.286Z,98840.09
2023-01-21T01:34:37.150Z,98841.66
2023-01-21T01:35:38.583Z,98848.66
2023-01-21T01:36:40.367Z,98844.28
2023-01-21T01:37:41.884Z,98845.09
2023-01-21T01:38:44.093Z,98849.34
2023-01-21T01:39:45.529Z,98850.56
2023-01-21T01:40:48.685Z,98850.28
2023-01-21T01:41:50.085Z,98853.13
2023-01-21T01:42:51.496Z,98847.69
2023-01-21T01:43:57.349Z,98848.75
2023-01-21T01:45:02.353Z,98851.13
2023-01-21T01:46:04.090Z,98845.41
2023-01-21T01:47:05.634Z,98844.97
2023-01-21T01:48:07.677Z,98847.56
2023-01-21T01:49:13.527Z,98844.44
2023-01-21T01:50:19.616Z,98849.88
2023-01-21T01:51:27.708Z,98849.09
2023-01-21T01:52:30.435Z,98843.88
2023-01-21T01:53:32.405Z,98843.59
2023-01-21T01:54:41.924Z,98850.91
2023-01-21T01:55:43.956Z,98843.34
2023-01-21T01:56:50.598Z,98846.75
2023-01-21T01:57:54.731Z,98850.13
2023-01-21T01:58:56.273Z,98846.72
2023-01-21T01:59:59.694Z,98838.66
2023-01-21T02:01:01.255Z,98849.03
2023-01-21T02:02:09.521Z,98846.97
2023-01-21T02:03:30.373Z,98852.16
2023-01-21T02:04:36.724Z,98849.25
2023-01-21T02:05:40.110Z,98840.72
2023-01-21T02:06:43.100Z,98839.19
2023-01-21T02:07:45.869Z,98841.78
2023-01-21T02:08:47.787Z,98847.47
2023-01-21T02:09:49.317Z,98842.00
2023-01-21T02:10:51.450Z,98844.59
2023-01-21T02:11:52.944Z,98848.25
2023-01-21T02:12:54.467Z,98843.59
2023-01-21T02:13:59.291Z,98840.75
2023-01-21T02:15:00.829Z,98850.06
2023-01-21T02:16:41.617Z,98845.94
2023-01-21T02:18:05.195Z,98847.19
2023-01-21T02:19:44.204Z,98849.50
2023-01-21T02:20:45.579Z,98846.72
2023-01-21T02:22:11.934Z,98846.97
2023-01-21T02:23:37.395Z,98848.53
2023-01-21T02:24:44.784Z,98847.72
2023-01-21T02:26:17.265Z,98856.09
2023-01-21T02:27:30.526Z,98848.34
2023-01-21T02:29:05.996Z,98846.81
2023-01-21T02:30:32.395Z,98847.81
2023-01-21T02:31:39.881Z,98844.44
2023-01-21T02:33:13.530Z,98844.72
2023-01-21T02:34:25.400Z,98842.66
2023-01-21T02:35:32.122Z,98836.22
2023-01-21T02:36:55.735Z,98847.63
2023-01-21T02:38:06.923Z,98843.47
2023-01-21T02:39:21.951Z,98844.00
2023-01-21T02:40:37.193Z,98837.53
2023-01-21T02:41:50.552Z,98840.63
2023-01-21T02:43:03.349Z,98840.13
2023-01-21T02:44:21.101Z,98829.47
2023-01-21T02:45:35.404Z,98838.53
2023-01-21T02:46:43.231Z,98844.00
2023-01-21T02:48:06.173Z,98836.22
2023-01-21T02:49:11.947Z,98838.28
2023-01-21T02:50:31.580Z,98843.22
2023-01-21T02:51:33.352Z,98844.78
2023-01-21T02:52:34.767Z,98838.53
2023-01-21T02:53:36.690Z,98845.81
2023-01-21T02:54:41.089Z,98839.34
2023-01-21T02:55:43.572Z,98847.13
2023-01-21T02:56:45.189Z,98843.00
2023-01-21T02:57:55.033Z,98848.44
2023-01-21T02:59:01.274Z,98849.47
2023-01-21T03:00:09.747Z,98850.81
2023-01-21T03:01:14.659Z,98848.19
2023-01-21T03:02:55.183Z,98845.59
2023-01-21T03:04:33.853Z,98841.69
2023-01-21T03:05:41.276Z,98849.78
2023-01-21T03:06:56.403Z,98848.47
2023-01-21T03:08:12.631Z,98854.44
2023-01-21T03:09:29.447Z,98850.56
2023-01-21T03:10:39.384Z,98849.03
2023-01-21T03:11:45.686Z,98850.59
2023-01-21T03:13:00.224Z,98846.19
2023-01-21T03:14:39.585Z,98850.31
2023-01-21T03:16:15.120Z,98847.97
2023-01-21T03:17:44.833Z,98846.97
2023-01-21T03:18:52.754Z,98854.75
2023-01-21T03:20:02.256Z,98853.97
2023-01-21T03:21:08.357Z,98855.75
2023-01-21T03:22:16.705Z,98852.66
2023-01-21T03:23:24.268Z,98854.97
2023-01-21T03:24:26.290Z,98852.44
2023-01-21T03:25:31.169Z,98856.06
2023-01-21T03:26:39.025Z,98851.09
2023-01-21T03:27:44.574Z,98852.91
2023-01-21T03:28:50.063Z,98858.63
2023-01-21T03:29:57.640Z,98849.78
2023-01-21T03:31:08.965Z,98860.94
2023-01-21T03:32:14.705Z,98856.28
2023-01-21T03:33:18.907Z,98859.16
2023-01-21T03:34:24.239Z,98857.34
2023-01-21T03:35:29.589Z,98852.88
2023-01-21T03:36:48.998Z,98849.03
2023-01-21T03:38:19.191Z,98853.66
2023-01-21T03:39:38.877Z,98860.94
2023-01-21T03:40:53.435Z,98851.63
2023-01-21T03:41:55.264Z,98853.97
2023-01-21T03:42:57.431Z,98856.84
2023-01-21T03:43:59.591Z,98845.41
2023-01-21T03:45:01.824Z,98847.25
2023-01-21T03:46:22.067Z,98846.47
2023-01-21T03:47:31.351Z,98848.00
2023-01-21T03:48:42.722Z,98847.72
2023-01-21T03:49:50.450Z,98851.13
2023-01-21T03:50:58.701Z,98851.13
2023-01-21T03:52:04.044Z,98843.84
2023-01-21T03:53:06.949Z,98845.66
2023-01-21T03:54:08.594Z,98848.25
2023-01-21T03:55:12.116Z,98851.88
2023-01-21T03:56:13.531Z,98856.84
2023-01-21T03:57:15.430Z,98854.47
2023-01-21T03:58:17.041Z,98852.44
2023-01-21T03:59:18.457Z,98856.06
2023-01-21T04:00:20.185Z,98852.91
2023-01-21T04:01:22.108Z,98856.03
2023-01-21T04:02:23.809Z,98856.28
2023-01-21T04:03:25.509Z,98851.63
2023-01-21T04:04:27.122Z,98848.75
2023-01-21T04:05:28.682Z,98849.22
2023-01-21T04:06:30.481Z,98850.56
2023-01-21T04:07:32.210Z,98844.59
2023-01-21T04:08:33.750Z,98849.28
2023-01-21T04:09:35.220Z,98854.22
2023-01-21T04:10:36.718Z,98850.56
2023-01-21T04:11:38.892Z,98848.22
2023-01-21T04:12:40.690Z,98849.47
2023-01-21T04:13:42.619Z,98853.63
2023-01-21T04:14:44.440Z,98854.94
2023-01-21T04:15:45.855Z,98851.31
2023-01-21T04:16:47.606Z,98853.38
2023-01-21T04:17:49.047Z,98849.75
2023-01-21T04:18:50.578Z,98851.00
2023-01-21T04:19:52.034Z,98848.63
2023-01-21T04:20:53.484Z,98850.97
2023-01-21T04:21:55.224Z,98852.56
2023-01-21T04:22:56.659Z,98851.22
2023-01-21T04:23:58.346Z,98851.69
2023-01-21T04:24:59.778Z,98853.25
2023-01-21T04:26:01.228Z,98849.34
2023-01-21T04:27:02.815Z,98856.34
2023-01-21T04:28:04.706Z,98855.31
2023-01-21T04:29:06.188Z,98849.34
2023-01-21T04:30:08.388Z,98845.69
2023-01-21T04:31:09.934Z,98845.22
2023-01-21T04:32:11.423Z,98853.25
2023-01-21T04:33:13.176Z,98851.19
2023-01-21T04:34:16.654Z,98844.50
2023-01-21T04:35:18.087Z,98853.00
2023-01-21T04:36:19.934Z,98849.91
2023-01-21T04:37:21.336Z,98847.56
2023-01-21T04:38:22.763Z,98850.41
2023-01-21T04:39:24.268Z,98849.34
2023-01-21T04:40:25.788Z,98851.78
2023-01-21T04:41:27.775Z,98844.28
2023-01-21T04:42:29.373Z,98852.81
2023-01-21T04:43:30.841Z,98848.13
2023-01-21T04:44:32.384Z,98850.72
2023-01-21T04:45:33.963Z,98851.78
2023-01-21T04:46:35.772Z,98852.84
2023-01-21T04:47:41.378Z,98855.97
2023-01-21T04:48:42.818Z,98847.91
2023-01-21T04:49:44.233Z,98847.41
2023-01-21T04:50:46.799Z,98847.16
2023-01-21T04:51:48.372Z,98855.97
2023-01-21T04:52:49.828Z,98852.81
2023-01-21T04:53:51.260Z,98847.84
2023-01-21T04:54:52.760Z,98842.44
2023-01-21T04:55:54.414Z,98850.50
2023-01-21T04:56:55.891Z,98847.63
2023-01-21T04:57:57.356Z,98852.59
2023-01-21T04:58:58.779Z,98845.59
2023-01-21T05:00:00.264Z,98855.41
2023-01-21T05:01:01.698Z,98862.41
2023-01-21T05:02:04.178Z,98849.72
2023-01-21T05:03:05.915Z,98853.84
2023-01-21T05:04:07.368Z,98857.25
2023-01-21T05:05:08.953Z,98854.19
2023-01-21T05:06:10.398Z,98854.66
2023-01-21T05:07:11.993Z,98846.34
2023-01-21T05:08:13.453Z,98858.81
2023-01-21T05:09:14.999Z,98856.25
2023-01-21T05:10:17.497Z,98856.00
2023-01-21T05:11:20.200Z,98856.75
2023-01-21T05:12:21.601Z,98854.66
2023-01-21T05:13:23.063Z,98852.31
2023-01-21T05:14:24.533Z,98855.41
2023-01-21T05:15:25.948Z,98852.28
2023-01-21T05:16:27.551Z,98853.56
2023-01-21T05:17:29.034Z,98851.75
2023-01-21T05:18:30.456Z,98858.75
2023-01-21T05:19:31.855Z,98854.88
2023-01-21T05:20:33.302Z,98854.88
2023-01-21T05:21:35.025Z,98858.47
2023-01-21T05:22:36.576Z,98858.19
2023-01-21T05:23:38.030Z,98855.88
2023-01-21T05:24:39.449Z,98856.66
2023-01-21T05:25:40.850Z,98856.16
2023-01-21T05:26:43.459Z,98848.09
2023-01-21T05:27:51.049Z,98858.72
2023-01-21T05:28:52.488Z,98851.22
2023-01-21T05:29:54.030Z,98857.94
2023-01-21T05:31:00.146Z,98857.94
2023-01-21T05:32:01.966Z,98860.75
2023-01-21T05:33:03.542Z,98857.91
2023-01-21T05:34:04.947Z,98861.00
2023-01-21T05:35:06.745Z,98856.63
2023-01-21T05:36:09.924Z,98861.03
2023-01-21T05:37:12.205Z,98864.41
2023-01-21T05:38:13.598Z,98864.69
2023-01-21T05:39:15.098Z,98861.59
2023-01-21T05:40:18.018Z,98865.78
2023-01-21T05:41:19.961Z,98866.53
2023-01-21T05:42:21.800Z,98873.50
2023-01-21T05:43:23.225Z,98869.34
2023-01-21T05:44:24.618Z,98873.22
2023-01-21T05:45:26.018Z,98877.88
2023-01-21T05:46:27.440Z,98871.41
2023-01-21T05:47:29.211Z,98874.28
2023-01-21T05:48:31.862Z,98869.34
2023-01-21T05:49:33.283Z,98878.47
2023-01-21T05:50:34.677Z,98873.75
2023-01-21T05:51:36.116Z,98877.41
2023-01-21T05:52:38.328Z,98879.22
2023-01-21T05:53:39.891Z,98873.75
2023-01-21T05:54:52.411Z,98877.66
2023-01-21T05:56:01.664Z,98877.59
2023-01-21T05:57:03.180Z,98881.25
2023-01-21T05:58:04.931Z,98882.78
2023-01-21T05:59:07.602Z,98881.47
2023-01-21T06:00:09.797Z,98887.22
2023-01-21T06:01:11.214Z,98875.28
2023-01-21T06:02:12.705Z,98889.03
2023-01-21T06:03:16.459Z,98889.53
2023-01-21T06:04:17.896Z,98884.56
2023-01-21T06:05:19.331Z,98886.88
2023-01-21T06:06:21.418Z,98889.81
2023-01-21T06:07:22.942Z,98888.78
2023-01-21T06:08:24.736Z,98895.78
2023-01-21T06:09:26.161Z,98883.28
2023-01-21T06:10:27.617Z,98889.81
2023-01-21T06:11:29.121Z,98887.72
2023-01-21T06:12:30.618Z,98884.63
2023-01-21T06:13:32.207Z,98883.53
2023-01-21T06:14:33.631Z,98890.00
2023-01-21T06:15:35.068Z,98884.28
2023-01-21T06:16:36.514Z,98888.19
2023-01-21T06:17:40.488Z,98892.28
2023-01-21T06:18:41.941Z,98897.16
2023-01-21T06:19:43.413Z,98893.28
2023-01-21T06:20:44.990Z,98884.50
2023-01-21T06:21:46.462Z,98883.44
2023-01-21T06:22:48.226Z,98890.19
2023-01-21T06:23:49.671Z,98887.59
2023-01-21T06:24:51.154Z,98891.47
2023-01-21T06:25:52.686Z,98894.03
2023-01-21T06:26:54.165Z,98896.91
2023-01-21T06:27:56.356Z,98890.69
2023-01-21T06:28:57.869Z,98890.41
2023-01-21T06:29:59.263Z,98901.59
2023-01-21T06:31:00.797Z,98890.47
2023-01-21T06:32:02.451Z,98893.81
2023-01-21T06:33:04.855Z,98891.47
2023-01-21T06:34:06.430Z,98889.66
2023-01-21T06:35:08.310Z,98894.84
2023-01-21T06:36:09.854Z,98902.63
2023-01-21T06:37:11.341Z,98898.97
2023-01-21T06:38:13.043Z,98903.38
2023-01-21T06:39:15.287Z,98891.19
2023-01-21T06:40:17.383Z,98896.16
2023-01-21T06:41:19.171Z,98906.34
2023-01-21T06:42:20.632Z,98898.53
2023-01-21T06:43:22.136Z,98902.63
2023-01-21T06:44:23.637Z,98895.31
2023-01-21T06:45:25.042Z,98897.44
2023-01-21T06:46:26.515Z,98902.63
2023-01-21T06:47:28.102Z,98896.19
2023-01-21T06:48:29.898Z,98898.78
2023-01-21T06:49:31.296Z,98894.09
2023-01-21T06:50:32.780Z,98889.41
2023-01-21T06:51:34.222Z,98889.69
2023-01-21T06:52:35.654Z,98894.25
2023-01-21T06:53:37.454Z,98897.09
2023-01-21T06:54:38.899Z,98901.84
2023-01-21T06:55:40.564Z,98905.66
2023-01-21T06:56:43.689Z,98905.38
2023-01-21T06:57:45.008Z,98904.78
2023-01-21T06:58:46.524Z,98902.19
2023-01-21T06:59:48.085Z,98908.38
2023-01-21T07:00:49.524Z,98906.34
2023-01-21T07:01:51.015Z,98909.22
2023-01-21T07:02:56.611Z,98913.69
2023-01-21T07:03:58.120Z,98915.53
2023-01-21T07:04:59.609Z,98914.50
2023-01-21T07:06:01.040Z,98915.09
2023-01-21T07:07:02.537Z,98911.69
2023-01-21T07:08:05.509Z,98916.06
2023-01-21T07:09:08.220Z,98924.06
2023-01-21T07:10:10.324Z,98927.19
2023-01-21T07:11:11.745Z,98922.94
2023-01-21T07:12:13.411Z,98926.06
2023-01-21T07:13:14.824Z,98929.41
2023-01-21T07:14:16.718Z,98922.13
2023-01-21T07:15:18.439Z,98928.88
2023-01-21T07:16:20.019Z,98927.34
2023-01-21T07:17:23.077Z,98927.06
2023-01-21T07:18:24.577Z,98931.69
2023-01-21T07:19:26.375Z,98931.97
2023-01-21T07:20:27.914Z,98930.88
2023-01-21T07:21:29.407Z,98925.94
2023-01-21T07:22:30.905Z,98926.22
2023-01-21T07:23:32.342Z,98922.56
2023-01-21T07:24:34.088Z,98935.25
2023-01-21T07:25:37.364Z,98927.44
2023-01-21T07:26:38.947Z,98929.78
2023-01-21T07:27:43.291Z,98935.75
2023-01-21T07:28:44.815Z,98930.28
2023-01-21T07:29:46.573Z,98932.09
2023-01-21T07:30:48.026Z,98937.53
2023-01-21T07:31:49.620Z,98937.78
2023-01-21T07:32:51.034Z,98941.13
2023-01-21T07:33:52.504Z,98931.28
2023-01-21T07:34:53.953Z,98930.47
2023-01-21T07:35:55.982Z,98935.13
2023-01-21T07:36:57.405Z,98931.25
2023-01-21T07:37:58.819Z,98924.78
2023-01-21T07:39:00.285Z,98928.94
2023-01-21T07:40:02.098Z,98931.53
2023-01-21T07:41:03.575Z,98927.41
2023-01-21T07:42:05.018Z,98933.34
2023-01-21T07:43:06.457Z,98936.75
2023-01-21T07:44:08.970Z,98933.84
2023-01-21T07:45:10.996Z,98938.75
2023-01-21T07:46:12.484Z,98937.19
2023-01-21T07:47:13.932Z,98933.34
2023-01-21T07:48:15.535Z,98934.38
2023-01-21T07:49:19.619Z,98933.16
2023-01-21T07:50:21.416Z,98929.22
2023-01-21T07:51:23.066Z,98928.19
2023-01-21T07:52:24.767Z,98933.09
2023-01-21T07:53:26.967Z,98936.28
2023-01-21T07:54:28.803Z,98928.19
2023-01-21T07:55:31.097Z,98931.56
2023-01-21T07:56:32.558Z,98930.00
2023-01-21T07:57:34.106Z,98925.63
2023-01-21T07:58:35.942Z,98926.38
2023-01-21T07:59:37.374Z,98931.28
2023-01-21T08:00:38.778Z,98925.59
2023-01-21T08:01:40.207Z,98923.63
2023-01-21T08:02:41.695Z,98921.09
2023-01-21T08:03:43.206Z,98925.78
2023-01-21T08:04:44.694Z,98921.41
2023-01-21T08:05:46.688Z,98925.53
2023-01-21T08:06:48.167Z,98926.00
2023-01-21T08:07:50.242Z,98927.31
2023-01-21T08:08:51.734Z,98927.00
2023-01-21T08:09:53.243Z,98925.94
2023-01-21T08:10:55.306Z,98931.91
2023-01-21T08:11:57.696Z,98931.84
2023-01-21T08:13:01.031Z,98926.09
2023-01-21T08:14:02.501Z,98929.47
2023-01-21T08:15:04.672Z,98933.88
2023-01-21T08:16:06.876Z,98930.75
2023-01-21T08:17:08.387Z,98935.94
2023-01-21T08:18:09.837Z,98937.19
2023-01-21T08:19:13.818Z,98936.16
2023-01-21T08:20:15.456Z,98940.31
2023-01-21T08:21:16.899Z,98932.00
2023-01-21T08:22:18.442Z,98938.28
2023-01-21T08:23:19.950Z,98941.38
2023-01-21T08:24:21.425Z,98942.97
2023-01-21T08:25:22.874Z,98935.69
2023-01-21T08:26:25.760Z,98941.94
2023-01-21T08:27:27.459Z,98937.78
2023-01-21T08:28:28.928Z,98939.88
2023-01-21T08:29:30.446Z,98946.91
2023-01-21T08:30:32.453Z,98941.72
2023-01-21T08:31:34.250Z,98943.78
2023-01-21T08:32:35.682Z,98944.50
2023-01-21T08:33:38.048Z,98943.16
2023-01-21T08:34:39.488Z,98945.22
2023-01-21T08:35:41.566Z,98941.13
2023-01-21T08:36:43.075Z,98947.59
2023-01-21T08:37:44.661Z,98947.06
2023-01-21T08:38:48.494Z,98946.25
2023-01-21T08:39:50.213Z,98944.19
2023-01-21T08:40:51.658Z,98944.41
2023-01-21T08:41:53.078Z,98949.84
2023-01-21T08:43:01.598Z,98939.47
2023-01-21T08:44:03.012Z,98949.06
2023-01-21T08:45:05.720Z,98945.09
2023-01-21T08:46:07.270Z,98947.97
2023-01-21T08:47:08.760Z,98946.16
2023-01-21T08:48:10.181Z,98953.13
2023-01-21T08:49:11.632Z,98945.59
2023-01-21T08:50:13.306Z,98954.38
2023-01-21T08:51:15.161Z,98942.19
2023-01-21T08:52:17.177Z,98958.25
2023-01-21T08:53:18.748Z,98956.44
2023-01-21T08:54:22.913Z,98954.34
2023-01-21T08:55:28.165Z,98958.22
2023-01-21T08:56:29.926Z,98950.13
2023-01-21T08:57:31.393Z,98954.84
2023-01-21T08:58:33.685Z,98956.97
2023-01-21T08:59:35.555Z,98953.53
2023-01-21T09:00:37.059Z,98968.28
2023-01-21T09:01:41.278Z,98969.03
2023-01-21T09:02:42.723Z,98964.03
2023-01-21T09:03:44.122Z,98966.09
2023-01-21T09:04:46.303Z,98970.53
2023-01-21T09:05:48.569Z,98968.41
2023-01-21T09:06:50.003Z,98975.19
2023-01-21T09:07:51.436Z,98972.78
2023-01-21T09:08:52.952Z,98970.69
2023-01-21T09:09:54.375Z,98973.78
2023-01-21T09:11:03.415Z,98978.97
2023-01-21T09:12:06.882Z,98985.00
2023-01-21T09:13:09.608Z,98978.56
2023-01-21T09:14:11.097Z,98981.72
2023-01-21T09:15:12.552Z,98981.44
2023-01-21T09:16:17.565Z,98983.56
2023-01-21T09:17:19.325Z,98980.13
2023-01-21T09:18:21.126Z,98986.88
2023-01-21T09:19:23.948Z,98990.50
2023-01-21T09:20:25.383Z,98994.56
2023-01-21T09:21:27.874Z,98995.91
2023-01-21T09:22:29.283Z,98988.94
2023-01-21T09:23:34.286Z,98995.41
2023-01-21T09:24:35.792Z,98999.34
2023-01-21T09:25:37.219Z,98998.78
2023-01-21T09:26:44.311Z,98997.94
2023-01-21T09:27:45.742Z,99009.97
2023-01-21T09:28:58.568Z,99004.75
2023-01-21T09:29:59.980Z,99010.13
2023-01-21T09:31:07.539Z,99010.06
2023-01-21T09:32:09.878Z,99009.06
2023-01-21T09:33:12.164Z,99013.72
2023-01-21T09:34:13.846Z,99009.00
2023-01-21T09:35:15.529Z,99008.22
2023-01-21T09:36:20.461Z,99006.22
2023-01-21T09:37:22.052Z,99011.06
2023-01-21T09:38:24.819Z,99011.53
2023-01-21T09:39:26.276Z,99012.53
2023-01-21T09:40:27.757Z,99014.84
2023-01-21T09:41:35.370Z,99016.91
2023-01-21T09:42:37.173Z,99007.25
2023-01-21T09:43:48.051Z,99013.19
2023-01-21T09:44:54.534Z,99010.25
2023-01-21T09:46:00.397Z,99014.13
2023-01-21T09:47:41.744Z,99013.84
2023-01-21T09:48:47.036Z,99014.63
2023-01-21T09:49:54.629Z,99010.84
2023-01-21T09:50:59.149Z,99009.75
2023-01-21T09:52:31.075Z,99023.69
2023-01-21T09:53:52.446Z,99012.91
2023-01-21T09:54:55.727Z,99020.94
2023-01-21T09:56:02.602Z,99022.00
2023-01-21T09:57:24.909Z,99026.13
2023-01-21T09:58:48.736Z,99026.28
2023-01-21T10:00:11.699Z,99019.16
2023-01-21T10:01:24.569Z,99021.69
2023-01-21T10:02:32.004Z,99016.50
2023-01-21T10:03:45.459Z,99025.03
2023-01-21T10:04:55.238Z,99027.97
2023-01-21T10:06:21.720Z,99027.88
2023-01-21T10:07:33.932Z,99028.06
2023-01-21T10:08:56.650Z,99028.06
2023-01-21T10:10:17.203Z,99027.69
2023-01-21T10:12:00.459Z,99032.81
2023-01-21T10:13:21.073Z,99031.97
2023-01-21T10:14:41.305Z,99037.59
2023-01-21T10:15:57.878Z,99032.16
2023-01-21T10:17:36.942Z,99034.63
2023-01-21T10:18:42.268Z,99034.94
2023-01-21T10:19:51.812Z,99034.06
2023-01-21T10:21:00.392Z,99036.34
2023-01-21T10:22:19.180Z,99039.66
2023-01-21T10:23:43.835Z,99043.94
2023-01-21T10:24:51.449Z,99036.97
2023-01-21T10:25:52.988Z,99043.81
2023-01-21T10:26:54.846Z,99037.13
2023-01-21T10:28:01.834Z,99047.00
2023-01-21T10:29:04.260Z,99041.25
2023-01-21T10:30:21.789Z,99036.34
2023-01-21T10:31:29.182Z,99040.28
2023-01-21T10:32:31.312Z,99037.13
2023-01-21T10:33:33.964Z,99040.44
2023-01-21T10:34:44.996Z,99039.13
2023-01-21T10:36:15.696Z,99034.13
2023-01-21T10:37:42.942Z,99045.69
2023-01-21T10:38:50.550Z,99040.25
2023-01-21T10:40:44.429Z,99036.28
2023-01-21T10:41:58.024Z,99029.41
2023-01-21T10:43:07.708Z,99032.00
2023-01-21T10:44:14.864Z,99035.63
2023-01-21T10:45:38.267Z,99035.06
2023-01-21T10:46:51.488Z,99035.38
2023-01-21T10:48:19.807Z,99033.22
2023-01-21T10:49:32.713Z,99032.69
2023-01-21T10:50:54.557Z,99027.22
2023-01-21T10:52:04.353Z,99029.28
2023-01-21T10:53:10.527Z,99031.25
2023-01-21T10:54:32.304Z,99036.16
2023-01-21T10:55:55.035Z,99024.72
2023-01-21T10:57:02.660Z,99033.78
2023-01-21T10:58:27.028Z,99027.00
2023-01-21T10:59:33.476Z,99025.91
2023-01-21T11:00:44.468Z,99031.19
2023-01-21T11:01:50.494Z,99034.31
2023-01-21T11:03:02.366Z,99027.00
2023-01-21T11:04:10.691Z,99028.47
2023-01-21T11:05:12.598Z,99030.47
2023-01-21T11:06:17.558Z,99026.59
2023-01-21T11:07:21.392Z,99024.81
2023-01-21T11:08:26.010Z,99028.94
2023-01-21T11:09:31.968Z,99023.41
2023-01-21T11:10:33.610Z,99029.78
2023-01-21T11:11:36.899Z,99030.41
2023-01-21T11:12:38.382Z,99030.91
2023-01-21T11:13:41.555Z,99031.91
2023-01-21T11:14:46.557Z,99029.03
2023-01-21T11:15:53.393Z,99025.31
2023-01-21T11:16:55.708Z,99035.13
2023-01-21T11:17:58.941Z,99030.69
2023-01-21T11:19:01.031Z,99033.81
2023-01-21T11:20:15.437Z,99029.78
2023-01-21T11:21:23.527Z,99034.13
2023-01-21T11:22:26.063Z,99033.59
2023-01-21T11:23:34.658Z,99025.56
2023-01-21T11:24:51.365Z,99023.88
2023-01-21T11:26:01.506Z,99026.13
2023-01-21T11:27:02.995Z,99020.59
2023-01-21T11:28:05.733Z,99020.47
2023-01-21T11:29:13.317Z,99028.53
2023-01-21T11:30:50.088Z,99022.47
2023-01-21T11:32:05.785Z,99018.00
2023-01-21T11:33:14.654Z,99021.81
2023-01-21T11:34:19.067Z,99019.59
2023-01-21T11:35:23.102Z,99021.41
2023-01-21T11:36:24.580Z,99017.22
2023-01-21T11:37:27.836Z,99013.31
2023-01-21T11:38:29.546Z,99014.56
2023-01-21T11:39:51.600Z,99016.94
2023-01-21T11:41:11.548Z,99013.56
2023-01-21T11:42:18.728Z,99015.78
2023-01-21T11:43:40.207Z,99013.56
2023-01-21T11:45:24.029Z,99020.47
2023-01-21T11:46:39.702Z,99012.06
2023-01-21T11:47:49.953Z,99010.69
2023-01-21T11:48:55.155Z,99002.84
2023-01-21T11:50:03.255Z,99007.56
2023-01-21T11:51:07.820Z,99003.84
2023-01-21T11:52:18.854Z,98996.84
2023-01-21T11:53:20.383Z,99008.00
2023-01-21T11:54:24.096Z,98995.69
2023-01-21T11:55:26.581Z,99000.09
2023-01-21T11:56:28.049Z,99005.44
2023-01-21T11:57:32.866Z,98994.41
2023-01-21T11:58:41.574Z,98995.44
2023-01-21T11:59:47.459Z,98994.81
2023-01-21T12:00:53.048Z,98994.00
2023-01-21T12:02:23.629Z,98995.69
2023-01-21T12:03:31.187Z,98989.66
2023-01-21T12:04:34.881Z,98993.66
2023-01-21T12:05:39.899Z,98991.63
2023-01-21T12:06:46.204Z,98993.09
2023-01-21T12:07:50.437Z,98993.81
2023-01-21T12:08:55.306Z,98991.72
2023-01-21T12:10:22.841Z,98992.81
2023-01-21T12:11:27.732Z,98986.41
2023-01-21T12:13:04.339Z,98995.88
2023-01-21T12:14:25.194Z,98989.66
2023-01-21T12:16:04.170Z,98987.72
2023-01-21T12:17:23.773Z,98989.09
2023-01-21T12:18:27.845Z,98987.75
2023-01-21T12:19:41.705Z,98983.16
2023-01-21T12:21:01.849Z,98986.13
2023-01-21T12:22:24.050Z,98984.03
2023-01-21T12:24:03.864Z,98979.88
2023-01-21T12:25:30.120Z,98981.94
2023-01-21T12:26:36.053Z,98980.16
2023-01-21T12:27:51.392Z,98975.56
2023-01-21T12:29:01.698Z,98981.22
2023-01-21T12:31:07.203Z,98975.44
2023-01-21T12:32:19.112Z,98974.47
2023-01-21T12:33:29.889Z,98972.75
2023-01-21T12:34:42.106Z,98969.50
2023-01-21T12:35:55.588Z,98978.47
2023-01-21T12:37:04.682Z,98970.28
2023-01-21T12:38:26.731Z,98962.22
2023-01-21T12:39:35.974Z,98969.56
2023-01-21T12:40:44.230Z,98964.81
2023-01-21T12:41:54.509Z,98961.53
2023-01-21T12:43:01.918Z,98961.28
2023-01-21T12:44:17.989Z,98967.19
2023-01-21T12:45:25.253Z,98962.13
2023-01-21T12:46:35.147Z,98959.41
2023-01-21T12:47:46.496Z,98967.59
2023-01-21T12:49:18.880Z,98957.88
2023-01-21T12:50:28.432Z,98963.28
2023-01-21T12:51:43.254Z,98956.97
2023-01-21T12:53:25.695Z,98959.41
2023-01-21T12:54:44.013Z,98964.09